Brightlingsea, United Kingdom
Current Conditions -  °F | °C
As of 4:50 PM on Sunday 23 Nov 2014 (Local Time) from EGUW Reporting Station
Moderate Rain Moderate Rain  
Wind Chill: 37°   Ceiling: 5500
Heat Index: 43°   Visibility: 6mi
Dew Point: 41°   Wind: 12mph
Humidity: 93%   Direction: 340°NNW
Pressure: 30.03"   Gusts: NA
Location:  51.81°N, 1.02°E
Report Text: EGUW 231650Z 34010KT 9999 RA SCT040 OVC055 06/05 Q1017 BLU NOSIG
Loading
Personal Weather Stations






























Interactive Weather Map New forecast layout! Learn more

10-Day Weather Forecast

Advertisements
Track Severe Weather on mobile